Aeroporto :
LOGIN :

Iscrizione | Disclaimer

   EN    FR    IT 

 










Sommario :    VFR   VFR Marginale   IFR   IFR Intensivo   IFR Molto Intensivo
Visibilità : 
Base nubi : 
>= 8 km
>= 3000ft
5 / 8 km
1000 / 3000 ft
1500m / 5 km
500 / 1000 ft
800 / 1500m
200 / 500 ft
< 800m
< 200 ft
Simboli :   Temporali  Nebbia  Neve Forte  Precipitazioni Forti  Vento > 20 kt
SIGMETs :   Varie  Temporali  Ghiacco  Turbolenza  Onda orograficha  Ceneri Vulcaniche






- Altitudine del aeroporto : 194 ft


EBCV - Chièvres

ULTIMO METAR :
  • 141825Z AUTO 10003KT 9999 SCT041/// OVC110/// 04/03 Q1002 BLU

METARs OBSOLETI :
  • 141755Z AUTO 13004KT 9999 FEW110/// SCT160/// BKN200/// 05/03 Q1002 BLU
  • 141725Z AUTO 11005KT 9999 SCT039/// BKN200/// 05/03 Q1001 BLU
  • 141655Z AUTO 09005KT 9999 BKN040/// 05/03 Q1001 BLU
  • 141625Z AUTO 12005KT 9999 BKN041/// 06/04 Q1001 BLU
  • 141555Z AUTO 11006KT 9999 BKN041/// 06/04 Q1001 BLU

TAF TAF EBCV
Valido dal 14 a 19 ore il 15 a 07 ore UTC


141541Z 1419/1507 06004KT 9999 FEW020 BKN120
TEMPO 1422/1507 04006KT 7000 -RA SCT015 BKN050
PROB30
TEMPO 1504/1507 4000 BR FEW005 BKN008 BY EBWM



MetMap, La meteo Aeronautica in un colpo d'occhio ! - Copyright ORBIFLY Dicembre 2007 - Disclaimer

ORBIFLY MET'MAP TEAM :

Programmazione e sviluppo : Alexandra Zaïnal
Concezione e sviluppo : Baudouin d'Aumeries
Co-Programmazione e sviluppo : Marc-Olivier Méhu
Supporto tecnico e logistico : Manuel Goepfert
Aiuto per la traduzione : Arnaldo La Scala

Contatto : metmap@orbifly.com




FONTI E CREDITI :

   NOAA